createdAt,value
2018-05-19T00:00:04.444Z,8.77
2018-05-19T00:02:33.453Z,8.72
2018-05-19T00:05:01.701Z,8.78
2018-05-19T00:07:29.931Z,8.80
2018-05-19T00:09:58.176Z,8.76
2018-05-19T00:12:26.411Z,8.81
2018-05-19T00:14:54.688Z,8.75
2018-05-19T00:17:22.924Z,8.79
2018-05-19T00:19:51.168Z,8.76
2018-05-19T00:22:19.420Z,8.73
2018-05-19T00:24:47.661Z,8.71
2018-05-19T00:27:15.897Z,8.74
2018-05-19T00:29:44.909Z,8.73
2018-05-19T00:32:13.145Z,8.69
2018-05-19T00:34:42.164Z,8.75
2018-05-19T00:37:10.395Z,8.73
2018-05-19T00:39:38.644Z,8.75
2018-05-19T00:42:06.884Z,8.75
2018-05-19T00:44:35.897Z,8.67
2018-05-19T00:47:04.139Z,8.68
2018-05-19T00:49:33.147Z,8.74
2018-05-19T00:52:01.396Z,8.69
2018-05-19T00:54:47.313Z,8.67
2018-05-19T00:57:15.560Z,8.61
2018-05-19T00:59:43.813Z,8.67
2018-05-19T01:02:12.056Z,8.65
2018-05-19T01:04:40.283Z,8.62
2018-05-19T01:07:08.529Z,8.55
2018-05-19T01:09:36.770Z,8.55
2018-05-19T01:12:05.733Z,8.51
2018-05-19T01:14:34.753Z,8.43
2018-05-19T01:17:03.001Z,8.42
2018-05-19T01:19:32.001Z,8.42
2018-05-19T01:22:01.022Z,8.40
2018-05-19T01:24:29.268Z,8.40
2018-05-19T01:26:58.275Z,8.39
2018-05-19T01:29:26.512Z,8.41
2018-05-19T01:31:54.759Z,8.40
2018-05-19T01:34:23.002Z,8.42
2018-05-19T01:36:51.257Z,8.39
2018-05-19T01:39:20.261Z,8.40
2018-05-19T01:41:49.267Z,8.38
2018-05-19T01:44:17.506Z,8.34
2018-05-19T01:46:45.744Z,8.30
2018-05-19T01:49:13.990Z,8.33
2018-05-19T01:51:42.997Z,8.26
2018-05-19T01:54:11.234Z,8.23
2018-05-19T01:56:40.240Z,8.22
2018-05-19T01:59:09.264Z,8.22
2018-05-19T02:01:37.508Z,8.17
2018-05-19T02:04:06.523Z,8.15
2018-05-19T02:06:34.755Z,8.15
2018-05-19T02:09:03.006Z,8.14
2018-05-19T02:11:31.239Z,8.07
2018-05-19T02:13:59.496Z,8.12
2018-05-19T02:16:28.495Z,8.14
2018-05-19T02:18:57.507Z,8.12
2018-05-19T02:21:25.744Z,8.13
2018-05-19T02:23:53.995Z,8.10
2018-05-19T02:26:22.230Z,8.12
2018-05-19T02:28:50.483Z,8.09
2018-05-19T02:31:19.495Z,8.08
2018-05-19T02:33:47.737Z,8.07
2018-05-19T02:36:15.969Z,8.12
2018-05-19T02:38:44.215Z,8.16
2018-05-19T02:41:13.226Z,8.20
2018-05-19T02:43:41.459Z,8.19
2018-05-19T02:46:10.471Z,8.22
2018-05-19T02:48:39.471Z,8.32
2018-05-19T02:51:07.727Z,8.32
2018-05-19T02:53:36.740Z,8.35
2018-05-19T02:56:04.977Z,8.33
2018-05-19T02:58:33.219Z,8.32
2018-05-19T03:01:01.462Z,8.33
2018-05-19T03:03:29.691Z,8.29
2018-05-19T03:05:57.940Z,8.28
2018-05-19T03:08:26.169Z,8.22
2018-05-19T03:10:54.407Z,8.23
2018-05-19T03:13:22.647Z,8.18
2018-05-19T03:15:50.901Z,8.14
2018-05-19T03:18:19.895Z,8.05
2018-05-19T03:20:48.916Z,8.04
2018-05-19T03:23:17.152Z,7.99
2018-05-19T03:25:46.159Z,7.98
2018-05-19T03:28:15.169Z,7.95
2018-05-19T03:30:43.415Z,7.99
2018-05-19T03:33:12.424Z,7.96
2018-05-19T03:35:41.453Z,7.93
2018-05-19T03:38:09.692Z,7.97
2018-05-19T03:40:38.694Z,7.96
2018-05-19T03:43:06.950Z,7.96
2018-05-19T03:45:35.953Z,7.98
2018-05-19T03:48:04.969Z,7.96
2018-05-19T03:50:33.204Z,8.02
2018-05-19T03:53:02.219Z,8.00
2018-05-19T03:55:30.465Z,8.03
2018-05-19T03:58:16.557Z,8.00
2018-05-19T04:01:02.790Z,8.01
2018-05-19T04:03:31.039Z,8.04
2018-05-19T04:06:00.045Z,8.03
2018-05-19T04:08:29.877Z,8.03
2018-05-19T04:10:58.123Z,8.04
2018-05-19T04:13:27.136Z,8.04
2018-05-19T04:15:55.372Z,8.03
2018-05-19T04:18:23.615Z,8.08
2018-05-19T04:20:51.855Z,8.04
2018-05-19T04:23:20.864Z,8.06
2018-05-19T04:25:49.108Z,8.07
2018-05-19T04:28:18.119Z,8.04
2018-05-19T04:30:46.356Z,8.11
2018-05-19T04:33:14.597Z,8.13
2018-05-19T04:35:42.827Z,8.14
2018-05-19T04:38:11.840Z,8.20
2018-05-19T04:40:40.077Z,8.19
2018-05-19T04:43:08.333Z,8.23
2018-05-19T04:45:36.567Z,8.27
2018-05-19T04:48:04.811Z,8.30
2018-05-19T04:50:33.061Z,8.39
2018-05-19T04:53:01.308Z,8.34
2018-05-19T04:55:29.561Z,8.37
2018-05-19T04:57:58.595Z,8.39
2018-05-19T05:00:27.568Z,8.44
2018-05-19T05:02:55.803Z,8.56
2018-05-19T05:05:24.043Z,8.59
2018-05-19T05:07:52.284Z,8.63
2018-05-19T05:10:20.542Z,8.74
2018-05-19T05:12:49.550Z,8.81
2018-05-19T05:15:17.798Z,8.75
2018-05-19T05:17:46.027Z,8.99
2018-05-19T05:20:14.275Z,9.01
2018-05-19T05:22:42.517Z,9.02
2018-05-19T05:25:10.769Z,9.05
2018-05-19T05:27:39.008Z,9.16
2018-05-19T05:30:07.248Z,9.26
2018-05-19T05:32:36.248Z,9.13
2018-05-19T05:35:05.259Z,9.24
2018-05-19T05:37:33.578Z,9.26
2018-05-19T05:40:01.759Z,9.27
2018-05-19T05:42:30.003Z,9.46
2018-05-19T05:44:58.235Z,9.33
2018-05-19T05:47:27.247Z,9.46
2018-05-19T05:49:55.484Z,9.48
2018-05-19T05:52:23.725Z,9.63
2018-05-19T05:54:51.963Z,9.86
2018-05-19T05:57:20.975Z,9.84
2018-05-19T05:59:49.305Z,10.23
2018-05-19T06:02:17.476Z,10.29
2018-05-19T06:04:45.716Z,10.22
2018-05-19T06:07:13.963Z,10.48
2018-05-19T06:09:42.981Z,10.53
2018-05-19T06:12:11.264Z,10.37
2018-05-19T06:14:39.484Z,10.26
2018-05-19T06:17:07.736Z,10.38
2018-05-19T06:19:35.976Z,10.29
2018-05-19T06:22:04.235Z,10.32
2018-05-19T06:24:33.250Z,10.62
2018-05-19T06:27:01.508Z,10.74
2018-05-19T06:29:29.756Z,10.86
2018-05-19T06:31:58.003Z,10.81
2018-05-19T06:34:26.245Z,10.83
2018-05-19T06:36:54.507Z,10.96
2018-05-19T06:39:22.757Z,10.96
2018-05-19T06:41:50.999Z,11.26
2018-05-19T06:44:19.263Z,11.35
2018-05-19T06:46:47.496Z,11.16
2018-05-19T06:49:16.530Z,11.38
2018-05-19T06:51:44.772Z,11.46
2018-05-19T06:54:13.787Z,11.67
2018-05-19T06:56:42.040Z,11.80
2018-05-19T06:59:11.056Z,11.83
2018-05-19T07:01:39.320Z,11.96
2018-05-19T07:04:07.570Z,11.97
2018-05-19T07:06:36.583Z,11.92
2018-05-19T07:09:04.852Z,11.85
2018-05-19T07:11:33.889Z,11.96
2018-05-19T07:14:02.181Z,12.05
2018-05-19T07:16:30.448Z,12.00
2018-05-19T07:18:58.729Z,12.28
2018-05-19T07:21:27.033Z,12.38
2018-05-19T07:23:55.298Z,12.23
2018-05-19T07:26:23.613Z,12.67
2018-05-19T07:28:51.900Z,12.91
2018-05-19T07:31:20.209Z,12.84
2018-05-19T07:33:48.501Z,12.78
2018-05-19T07:36:16.778Z,12.69
2018-05-19T07:38:45.057Z,12.73
2018-05-19T07:41:13.348Z,13.06
2018-05-19T07:43:41.611Z,12.79
2018-05-19T07:46:09.917Z,12.78
2018-05-19T07:48:38.969Z,13.04
2018-05-19T07:51:07.253Z,13.23
2018-05-19T07:53:35.533Z,13.38
2018-05-19T07:56:03.812Z,13.41
2018-05-19T07:58:32.085Z,13.43
2018-05-19T08:01:00.397Z,13.50
2018-05-19T08:03:28.684Z,13.59
2018-05-19T08:05:56.989Z,13.73
2018-05-19T08:08:25.256Z,13.55
2018-05-19T08:10:53.522Z,13.71
2018-05-19T08:13:21.818Z,13.63
2018-05-19T08:15:50.105Z,13.47
2018-05-19T08:18:18.395Z,14.23
2018-05-19T08:20:46.668Z,14.48
2018-05-19T08:23:14.911Z,14.81
2018-05-19T08:25:43.157Z,14.72
2018-05-19T08:28:12.220Z,14.64
2018-05-19T08:30:40.463Z,14.55
2018-05-19T08:33:08.722Z,14.61
2018-05-19T08:35:36.961Z,14.62
2018-05-19T08:38:05.967Z,14.65
2018-05-19T08:40:34.972Z,14.55
2018-05-19T08:43:03.230Z,14.47
2018-05-19T08:45:32.243Z,15.36
2018-05-19T08:48:00.485Z,15.82
2018-05-19T08:50:28.767Z,16.02
2018-05-19T08:52:57.759Z,16.14
2018-05-19T08:55:26.004Z,16.18
2018-05-19T08:57:54.253Z,16.22
2018-05-19T09:00:22.496Z,16.14
2018-05-19T09:02:51.509Z,16.29
2018-05-19T09:05:19.760Z,16.16
2018-05-19T09:07:48.770Z,16.32
2018-05-19T09:10:17.013Z,16.82
2018-05-19T09:12:45.274Z,17.11
2018-05-19T09:15:13.512Z,16.59
2018-05-19T09:17:41.760Z,16.77
2018-05-19T09:20:10.781Z,17.03
2018-05-19T09:22:39.021Z,16.61
2018-05-19T09:25:08.035Z,16.86
2018-05-19T09:27:36.280Z,17.16
2018-05-19T09:30:04.569Z,17.30
2018-05-19T09:32:33.618Z,17.34
2018-05-19T09:35:01.878Z,16.46
2018-05-19T09:37:30.137Z,16.75
2018-05-19T09:39:58.421Z,16.60
2018-05-19T09:42:26.688Z,16.72
2018-05-19T09:44:54.966Z,16.37
2018-05-19T09:47:23.261Z,16.42
2018-05-19T09:49:51.530Z,16.67
2018-05-19T09:52:19.847Z,16.88
2018-05-19T09:54:48.118Z,17.11
2018-05-19T09:57:16.394Z,17.05
2018-05-19T09:59:44.668Z,17.39
2018-05-19T10:02:12.939Z,16.87
2018-05-19T10:04:41.203Z,16.77
2018-05-19T10:07:09.467Z,16.50
2018-05-19T10:09:37.740Z,16.32
2018-05-19T10:12:06.841Z,16.60
2018-05-19T10:14:35.130Z,16.59
2018-05-19T10:17:03.424Z,17.08
2018-05-19T10:19:31.694Z,17.64
2018-05-19T10:21:59.957Z,17.29
2018-05-19T10:24:28.225Z,17.93
2018-05-19T10:26:56.484Z,18.13
2018-05-19T10:29:24.746Z,18.14
2018-05-19T10:31:53.023Z,17.56
2018-05-19T10:34:21.288Z,17.52
2018-05-19T10:36:49.558Z,17.73
2018-05-19T10:39:18.622Z,18.54
2018-05-19T10:41:46.908Z,19.07
2018-05-19T10:44:15.153Z,18.56
2018-05-19T10:46:43.442Z,19.10
2018-05-19T10:49:11.731Z,19.61
2018-05-19T10:51:40.072Z,19.65
2018-05-19T10:54:08.257Z,18.97
2018-05-19T10:56:36.534Z,19.17
2018-05-19T10:59:04.802Z,18.53
2018-05-19T11:01:33.065Z,19.36
2018-05-19T11:04:01.335Z,19.65
2018-05-19T11:06:29.609Z,18.94
2018-05-19T11:08:57.872Z,18.61
2018-05-19T11:11:26.141Z,19.45
2018-05-19T11:13:55.173Z,20.05
2018-05-19T11:16:23.454Z,19.43
2018-05-19T11:18:51.740Z,19.82
2018-05-19T11:21:19.990Z,20.48
2018-05-19T11:23:48.263Z,19.96
2018-05-19T11:26:16.537Z,20.86
2018-05-19T11:28:44.811Z,21.51
2018-05-19T11:31:13.073Z,20.11
2018-05-19T11:33:41.347Z,19.75
2018-05-19T11:36:09.617Z,18.96
2018-05-19T11:38:38.655Z,18.77
2018-05-19T11:41:06.917Z,18.69
2018-05-19T11:43:35.197Z,18.32
2018-05-19T11:46:03.457Z,18.24
2018-05-19T11:48:31.722Z,18.53
2018-05-19T11:50:59.990Z,19.46
2018-05-19T11:53:28.273Z,19.75
2018-05-19T11:55:56.558Z,20.18
2018-05-19T11:58:24.821Z,20.87
2018-05-19T12:00:53.093Z,20.60
2018-05-19T12:03:21.371Z,20.99
2018-05-19T12:05:49.660Z,21.09
2018-05-19T12:08:18.685Z,21.56
2018-05-19T12:10:46.946Z,21.22
2018-05-19T12:13:15.248Z,22.43
2018-05-19T12:15:43.511Z,21.33
2018-05-19T12:18:11.782Z,21.69
2018-05-19T12:20:40.050Z,21.90
2018-05-19T12:23:08.317Z,19.19
2018-05-19T12:25:36.585Z,20.44
2018-05-19T12:28:04.886Z,21.74
2018-05-19T12:30:33.182Z,23.06
2018-05-19T12:33:01.453Z,23.27
2018-05-19T12:35:30.497Z,23.23
2018-05-19T12:37:58.772Z,23.58
2018-05-19T12:40:27.032Z,22.65
2018-05-19T12:42:56.073Z,21.08
2018-05-19T12:45:24.361Z,21.45
2018-05-19T12:47:52.614Z,21.77
2018-05-19T12:50:20.893Z,20.91
2018-05-19T12:52:49.145Z,21.36
2018-05-19T12:55:17.414Z,21.50
2018-05-19T12:57:46.430Z,21.94
2018-05-19T13:00:14.693Z,21.92
2018-05-19T13:02:42.955Z,21.80
2018-05-19T13:05:11.997Z,21.97
2018-05-19T13:07:40.256Z,21.67
2018-05-19T13:10:08.522Z,20.78
2018-05-19T13:12:36.814Z,21.50
2018-05-19T13:15:05.085Z,21.79
2018-05-19T13:17:33.366Z,22.11
2018-05-19T13:20:01.617Z,21.45
2018-05-19T13:22:29.887Z,22.04
2018-05-19T13:24:58.152Z,21.75
2018-05-19T13:27:27.185Z,21.20
2018-05-19T13:29:55.465Z,20.19
2018-05-19T13:32:23.736Z,20.46
2018-05-19T13:34:51.999Z,21.02
2018-05-19T13:37:20.270Z,21.27
2018-05-19T13:39:48.534Z,21.76
2018-05-19T13:42:17.570Z,21.30
2018-05-19T13:44:45.839Z,20.53
2018-05-19T13:47:14.100Z,20.22
2018-05-19T13:49:42.352Z,20.78
2018-05-19T13:52:11.482Z,20.45
2018-05-19T13:54:40.424Z,20.56
2018-05-19T13:57:09.478Z,21.43
2018-05-19T13:59:37.731Z,21.52
2018-05-19T14:02:06.022Z,22.00
2018-05-19T14:04:34.293Z,23.28
2018-05-19T14:07:02.580Z,23.07
2018-05-19T14:09:30.840Z,22.64
2018-05-19T14:11:59.101Z,21.29
2018-05-19T14:14:27.384Z,22.40
2018-05-19T14:16:55.652Z,21.66
2018-05-19T14:19:23.926Z,22.46
2018-05-19T14:21:52.187Z,22.36
2018-05-19T14:24:21.222Z,23.35
2018-05-19T14:26:49.530Z,22.55
2018-05-19T14:29:17.796Z,22.58
2018-05-19T14:31:46.101Z,21.88
2018-05-19T14:34:14.366Z,21.35
2018-05-19T14:36:42.632Z,22.98
2018-05-19T14:39:10.901Z,23.01
2018-05-19T14:41:39.162Z,22.63
2018-05-19T14:44:07.428Z,22.76
2018-05-19T14:46:35.752Z,21.76
2018-05-19T14:49:04.025Z,20.58
2018-05-19T14:51:32.284Z,20.71
2018-05-19T14:54:00.541Z,20.87
2018-05-19T14:56:28.812Z,21.74
2018-05-19T14:58:57.082Z,21.62
2018-05-19T15:01:25.349Z,20.82
2018-05-19T15:03:53.633Z,21.92
2018-05-19T15:06:21.893Z,22.95
2018-05-19T15:08:50.157Z,23.56
2018-05-19T15:11:18.430Z,23.29
2018-05-19T15:13:46.693Z,23.49
2018-05-19T15:16:15.745Z,22.46
2018-05-19T15:18:44.004Z,21.37
2018-05-19T15:21:12.289Z,21.87
2018-05-19T15:23:40.545Z,22.20
2018-05-19T15:26:09.127Z,21.82
2018-05-19T15:28:37.459Z,21.77
2018-05-19T15:31:05.771Z,22.07
2018-05-19T15:33:34.059Z,22.01
2018-05-19T15:36:02.368Z,22.27
2018-05-19T15:38:30.675Z,22.16
2018-05-19T15:40:58.957Z,22.82
2018-05-19T15:43:28.040Z,22.79
2018-05-19T15:45:56.340Z,23.09
2018-05-19T15:48:24.659Z,23.64
2018-05-19T15:50:52.954Z,22.48
2018-05-19T15:53:21.248Z,22.42
2018-05-19T15:55:50.356Z,21.82
2018-05-19T15:58:19.408Z,22.29
2018-05-19T16:00:48.454Z,22.14
2018-05-19T16:03:16.757Z,21.42
2018-05-19T16:05:45.048Z,21.21
2018-05-19T16:08:13.343Z,20.84
2018-05-19T16:10:41.633Z,21.01
2018-05-19T16:13:09.933Z,21.25
2018-05-19T16:15:39.012Z,21.56
2018-05-19T16:18:08.060Z,21.38
2018-05-19T16:20:36.333Z,21.20
2018-05-19T16:23:04.605Z,23.26
2018-05-19T16:25:32.879Z,23.59
2018-05-19T16:28:01.148Z,23.78
2018-05-19T16:30:29.437Z,23.74
2018-05-19T16:32:57.733Z,23.07
2018-05-19T16:35:25.987Z,23.68
2018-05-19T16:37:54.242Z,24.21
2018-05-19T16:40:22.484Z,23.57
2018-05-19T16:42:50.741Z,23.98
2018-05-19T16:45:18.989Z,24.21
2018-05-19T16:47:47.236Z,24.16
2018-05-19T16:50:15.484Z,24.40
2018-05-19T16:52:43.733Z,24.25
2018-05-19T16:55:11.975Z,24.04
2018-05-19T16:57:40.237Z,23.59
2018-05-19T17:00:08.512Z,23.28
2018-05-19T17:02:37.509Z,23.75
2018-05-19T17:05:05.759Z,24.32
2018-05-19T17:07:34.769Z,23.67
2018-05-19T17:10:03.089Z,23.47
2018-05-19T17:12:32.040Z,24.54
2018-05-19T17:15:00.295Z,23.85
2018-05-19T17:17:29.314Z,23.03
2018-05-19T17:19:57.563Z,22.58
2018-05-19T17:22:26.575Z,22.08
2018-05-19T17:24:55.655Z,22.58
2018-05-19T17:27:24.994Z,22.50
2018-05-19T17:29:53.679Z,21.31
2018-05-19T17:32:22.232Z,21.10
2018-05-19T17:34:50.668Z,20.51
2018-05-19T17:37:19.109Z,20.69
2018-05-19T17:39:48.500Z,20.49
2018-05-19T17:42:16.861Z,20.86
2018-05-19T17:44:45.933Z,20.71
2018-05-19T17:47:14.178Z,19.98
2018-05-19T17:49:42.445Z,19.81
2018-05-19T17:52:10.705Z,19.89
2018-05-19T17:54:38.962Z,19.56
2018-05-19T17:57:08.069Z,19.07
2018-05-19T17:59:36.231Z,19.23
2018-05-19T18:02:05.243Z,19.21
2018-05-19T18:04:33.501Z,18.97
2018-05-19T18:07:02.521Z,19.06
2018-05-19T18:09:30.771Z,18.84
2018-05-19T18:11:59.792Z,18.74
2018-05-19T18:14:28.040Z,18.81
2018-05-19T18:16:57.052Z,18.67
2018-05-19T18:19:25.454Z,18.61
2018-05-19T18:21:53.612Z,18.48
2018-05-19T18:24:21.851Z,18.47
2018-05-19T18:26:50.870Z,18.51
2018-05-19T18:29:19.113Z,18.40
2018-05-19T18:31:47.361Z,18.29
2018-05-19T18:34:15.600Z,18.18
2018-05-19T18:36:43.848Z,18.16
2018-05-19T18:39:12.853Z,18.10
2018-05-19T18:41:41.871Z,18.04
2018-05-19T18:44:10.111Z,17.83
2018-05-19T18:46:39.120Z,17.83
2018-05-19T18:49:07.371Z,17.91
2018-05-19T18:51:50.577Z,17.83
2018-05-19T18:54:18.731Z,17.71
2018-05-19T18:56:46.997Z,17.76
2018-05-19T18:59:15.235Z,17.77
2018-05-19T19:01:44.249Z,17.70
2018-05-19T19:04:12.495Z,17.68
2018-05-19T19:06:41.515Z,17.61
2018-05-19T19:09:09.775Z,17.54
2018-05-19T19:11:38.777Z,17.64
2018-05-19T19:14:07.023Z,17.54
2018-05-19T19:16:35.266Z,17.49
2018-05-19T19:19:03.520Z,17.37
2018-05-19T19:21:31.763Z,17.19
2018-05-19T19:24:00.779Z,17.15
2018-05-19T19:26:29.024Z,16.93
2018-05-19T19:28:58.042Z,16.96
2018-05-19T19:31:26.277Z,16.88
2018-05-19T19:33:54.532Z,16.79
2018-05-19T19:36:22.784Z,16.60
2018-05-19T19:38:51.044Z,16.57
2018-05-19T19:41:19.282Z,16.36
2018-05-19T19:43:47.528Z,16.35
2018-05-19T19:46:15.782Z,16.15
2018-05-19T19:48:44.026Z,16.07
2018-05-19T19:51:13.092Z,15.87
2018-05-19T19:53:41.346Z,15.63
2018-05-19T19:56:09.592Z,15.60
2018-05-19T19:58:37.839Z,15.55
2018-05-19T20:01:06.091Z,15.58
2018-05-19T20:03:34.331Z,15.47
2018-05-19T20:06:02.580Z,15.35
2018-05-19T20:08:31.585Z,15.36
2018-05-19T20:10:59.839Z,15.31
2018-05-19T20:13:28.856Z,15.32
2018-05-19T20:15:57.113Z,15.41
2018-05-19T20:18:26.122Z,15.64
2018-05-19T20:20:54.381Z,15.65
2018-05-19T20:23:23.391Z,15.61
2018-05-19T20:25:51.652Z,15.62
2018-05-19T20:28:20.673Z,15.70
2018-05-19T20:30:48.938Z,15.65
2018-05-19T20:33:17.183Z,15.66
2018-05-19T20:35:45.437Z,15.65
2018-05-19T20:38:13.699Z,15.61
2018-05-19T20:40:41.961Z,15.54
2018-05-19T20:43:10.225Z,15.49
2018-05-19T20:45:38.528Z,15.38
2018-05-19T20:48:06.796Z,15.38
2018-05-19T20:50:35.075Z,15.42
2018-05-19T20:53:03.363Z,15.43
2018-05-19T20:55:31.673Z,15.39
2018-05-19T20:58:00.726Z,15.41
2018-05-19T21:00:28.997Z,15.40
2018-05-19T21:02:57.294Z,15.39
2018-05-19T21:05:25.569Z,15.36
2018-05-19T21:07:53.845Z,15.33
2018-05-19T21:10:22.129Z,15.30
2018-05-19T21:12:50.410Z,15.33
2018-05-19T21:15:18.677Z,15.29
2018-05-19T21:17:46.972Z,15.36
2018-05-19T21:20:16.011Z,15.32
2018-05-19T21:22:44.278Z,15.22
2018-05-19T21:25:12.545Z,15.15
2018-05-19T21:27:41.605Z,15.06
2018-05-19T21:30:09.852Z,14.91
2018-05-19T21:32:38.136Z,14.89
2018-05-19T21:35:06.400Z,14.93
2018-05-19T21:37:34.775Z,15.07
2018-05-19T21:40:03.068Z,15.15
2018-05-19T21:42:31.355Z,15.12
2018-05-19T21:44:59.652Z,15.09
2018-05-19T21:47:27.984Z,15.09
2018-05-19T21:49:56.350Z,15.13
2018-05-19T21:52:24.658Z,15.11
2018-05-19T21:54:52.942Z,15.08
2018-05-19T21:57:21.214Z,15.00
2018-05-19T21:59:49.532Z,14.96
2018-05-19T22:02:18.658Z,14.93
2018-05-19T22:04:47.005Z,14.90
2018-05-19T22:07:15.295Z,14.84
2018-05-19T22:09:43.566Z,14.94
2018-05-19T22:12:11.853Z,14.90
2018-05-19T22:14:40.145Z,14.87
2018-05-19T22:17:08.410Z,14.88
2018-05-19T22:19:36.681Z,14.89
2018-05-19T22:22:04.963Z,14.87
2018-05-19T22:24:33.252Z,14.86
2018-05-19T22:27:01.629Z,14.85
2018-05-19T22:29:30.703Z,14.80
2018-05-19T22:31:59.041Z,14.81
2018-05-19T22:34:27.336Z,14.77
2018-05-19T22:36:55.732Z,14.82
2018-05-19T22:39:24.000Z,14.69
2018-05-19T22:41:52.292Z,14.67
2018-05-19T22:44:20.607Z,14.66
2018-05-19T22:46:48.918Z,14.64
2018-05-19T22:49:17.964Z,14.62
2018-05-19T22:51:46.335Z,14.62
2018-05-19T22:54:14.633Z,14.64
2018-05-19T22:56:42.929Z,14.60
2018-05-19T22:59:11.332Z,14.64
2018-05-19T23:01:39.601Z,14.63
2018-05-19T23:04:07.870Z,14.60
2018-05-19T23:06:36.889Z,14.59
2018-05-19T23:09:05.924Z,14.61
2018-05-19T23:11:34.179Z,14.62
2018-05-19T23:14:02.429Z,14.63
2018-05-19T23:16:30.688Z,14.62
2018-05-19T23:18:58.940Z,14.58
2018-05-19T23:21:27.184Z,14.56
2018-05-19T23:23:55.436Z,14.55
2018-05-19T23:26:23.685Z,14.54
2018-05-19T23:28:52.696Z,14.55
2018-05-19T23:31:20.959Z,14.51
2018-05-19T23:33:49.219Z,14.47
2018-05-19T23:36:18.220Z,14.49
2018-05-19T23:38:47.240Z,14.50
2018-05-19T23:41:15.488Z,14.50
2018-05-19T23:43:44.511Z,14.50
2018-05-19T23:46:12.761Z,14.41
2018-05-19T23:48:41.776Z,14.41
2018-05-19T23:51:10.027Z,14.43
2018-05-19T23:53:39.044Z,14.29
2018-05-19T23:56:07.296Z,14.29
2018-05-19T23:58:36.304Z,14.28
